Kota Waris — S6RJ — position and weather

sailwx.info

Track history (hours):
 
Tides and Currents Weather Stations Pressure Air Temp Water Temp Dewpoint Dewpoint Depression Visibility Wind Speed Wind Dir Waves Ship Positions

Kota Waris

Last reported at 2017-Nov-29 09:18 UTC. Time now 2017-Dec-11 09:43 UTC.
Position N 01°15' E 104°03'.
Warning: this ship's position is 12 days out of date.

Length 185 m; draft 8.7 m.

Type: Cargo ship. MMSI: 564482000.

Date/timePositionNaut miles runAvg speedWind from/ knotsBaromVisibWave heightAir tempDewpointWater temp
2017-Nov-29 09:18N 01°15' E 104°03'413.1
2017-Nov-29 08:57N 01°14' E 103°59'612.8
2017-Nov-29 08:30N 01°13' E 103°53'4 8.5
2017-Nov-29 08:00N 01°16' E 103°50'1 1.4
2017-Nov-29 07:29N 01°16' E 103°50'0 0.0
2017-Nov-29 06:58N 01°16' E 103°50'0 0.0
2017-Nov-29 06:28N 01°16' E 103°50'0 0.0
2017-Nov-29 05:58N 01°16' E 103°50'0 0.0
2017-Nov-29 05:28N 01°16' E 103°50'0 0.0
2017-Nov-29 04:58N 01°16' E 103°50'0 0.0
2017-Nov-29 04:28N 01°16' E 103°50'0 0.0
2017-Nov-29 03:58N 01°16' E 103°50'0 0.0
2017-Nov-29 03:28N 01°16' E 103°50'0 0.0
2017-Nov-29 02:58N 01°16' E 103°50'0 0.0
2017-Nov-29 02:28N 01°16' E 103°50'0 0.0
2017-Nov-29 01:58N 01°16' E 103°50'0 0.0
2017-Nov-29 01:28N 01°16' E 103°50'0 0.0
2017-Nov-29 00:58N 01°16' E 103°50'0 0.0
2017-Nov-29 00:22N 01°16' E 103°50'0 0.0
2017-Nov-28 23:58N 01°16' E 103°50'0 0.0
2017-Nov-28 23:28N 01°16' E 103°50'0 0.0
2017-Nov-28 22:58N 01°16' E 103°50'0 0.0
2017-Nov-28 22:28N 01°16' E 103°50'0 0.0
2017-Nov-28 21:58N 01°16' E 103°50'0 0.0
2017-Nov-28 21:22N 01°16' E 103°50'0 0.0
2017-Nov-28 20:58N 01°16' E 103°50'0 0.1
2017-Nov-28 20:28N 01°16' E 103°50'0 0.1
2017-Nov-28 19:58N 01°16' E 103°50'0 0.0
2017-Nov-28 19:28N 01°16' E 103°50'0 0.0
2017-Nov-28 18:52N 01°16' E 103°50'0 0.0
2017-Nov-28 18:28N 01°16' E 103°50'0 0.0
2017-Nov-28 17:58N 01°16' E 103°50'0 0.0
2017-Nov-28 17:28N 01°16' E 103°50'0 0.0
2017-Nov-28 16:58N 01°16' E 103°50'0 0.0
2017-Nov-28 16:28N 01°16' E 103°50'0 0.0
2017-Nov-28 15:52N 01°16' E 103°50'0 0.0
2017-Nov-28 14:58N 01°16' E 103°50'0 0.0
2017-Nov-28 14:28N 01°16' E 103°50'0 0.0
2017-Nov-28 13:58N 01°16' E 103°50'0 0.0
2017-Nov-28 13:28N 01°16' E 103°50'0 0.0
2017-Nov-28 12:55N 01°16' E 103°50'0 0.0
2017-Nov-28 12:28N 01°16' E 103°50'0 0.0
2017-Nov-28 11:58N 01°16' E 103°50'0 0.0
2017-Nov-28 11:28N 01°16' E 103°50'0 0.0
2017-Nov-28 10:58N 01°16' E 103°50'0 0.0
2017-Nov-28 10:28N 01°16' E 103°50'0 0.0
2017-Nov-28 09:58N 01°16' E 103°50'0 0.0
2017-Nov-28 09:28N 01°16' E 103°50'0 0.0
2017-Nov-28 08:59N 01°16' E 103°50'1 2.0
2017-Nov-28 08:31N 01°16' E 103°51'4 7.1
2017-Nov-28 08:01N 01°14' E 103°54'2 3.5
2017-Nov-28 07:30N 01°14' E 103°55'4 7.4
2017-Nov-28 07:00N 01°15' E 103°59'4 7.5
2017-Nov-28 06:31N 01°16' E 104°02'  
Track history (hours):
 
Tides and Currents Weather Stations Pressure Air Temp Water Temp Dewpoint Dewpoint Depression Visibility Wind Speed Wind Dir Waves Ship Positions

Kota Waris

Last reported at 2017-Nov-29 09:18 UTC. Time now 2017-Dec-11 09:43 UTC.
Position N 01°15' E 104°03'.
Warning: this ship's position is 12 days out of date.

Length 185 m; draft 8.7 m.

Type: Cargo ship. MMSI: 564482000.

Date/timePositionNaut miles runAvg speedWind from/ knotsBaromVisibWave heightAir tempDewpointWater temp
2017-Nov-29 09:18N 01°15' E 104°03'413.1
2017-Nov-29 08:57N 01°14' E 103°59'612.8
2017-Nov-29 08:30N 01°13' E 103°53'4 8.5
2017-Nov-29 08:00N 01°16' E 103°50'1 1.4
2017-Nov-29 07:29N 01°16' E 103°50'0 0.0
2017-Nov-29 06:58N 01°16' E 103°50'0 0.0
2017-Nov-29 06:28N 01°16' E 103°50'0 0.0
2017-Nov-29 05:58N 01°16' E 103°50'0 0.0
2017-Nov-29 05:28N 01°16' E 103°50'0 0.0
2017-Nov-29 04:58N 01°16' E 103°50'0 0.0
2017-Nov-29 04:28N 01°16' E 103°50'0 0.0
2017-Nov-29 03:58N 01°16' E 103°50'0 0.0
2017-Nov-29 03:28N 01°16' E 103°50'0 0.0
2017-Nov-29 02:58N 01°16' E 103°50'0 0.0
2017-Nov-29 02:28N 01°16' E 103°50'0 0.0
2017-Nov-29 01:58N 01°16' E 103°50'0 0.0
2017-Nov-29 01:28N 01°16' E 103°50'0 0.0
2017-Nov-29 00:58N 01°16' E 103°50'0 0.0
2017-Nov-29 00:22N 01°16' E 103°50'0 0.0
2017-Nov-28 23:58N 01°16' E 103°50'0 0.0
2017-Nov-28 23:28N 01°16' E 103°50'0 0.0
2017-Nov-28 22:58N 01°16' E 103°50'0 0.0
2017-Nov-28 22:28N 01°16' E 103°50'0 0.0
2017-Nov-28 21:58N 01°16' E 103°50'0 0.0
2017-Nov-28 21:22N 01°16' E 103°50'0 0.0
2017-Nov-28 20:58N 01°16' E 103°50'0 0.1
2017-Nov-28 20:28N 01°16' E 103°50'0 0.1
2017-Nov-28 19:58N 01°16' E 103°50'0 0.0
2017-Nov-28 19:28N 01°16' E 103°50'0 0.0
2017-Nov-28 18:52N 01°16' E 103°50'0 0.0
2017-Nov-28 18:28N 01°16' E 103°50'0 0.0
2017-Nov-28 17:58N 01°16' E 103°50'0 0.0
2017-Nov-28 17:28N 01°16' E 103°50'0 0.0
2017-Nov-28 16:58N 01°16' E 103°50'0 0.0
2017-Nov-28 16:28N 01°16' E 103°50'0 0.0
2017-Nov-28 15:52N 01°16' E 103°50'0 0.0
2017-Nov-28 14:58N 01°16' E 103°50'0 0.0
2017-Nov-28 14:28N 01°16' E 103°50'0 0.0
2017-Nov-28 13:58N 01°16' E 103°50'0 0.0
2017-Nov-28 13:28N 01°16' E 103°50'0 0.0
2017-Nov-28 12:55N 01°16' E 103°50'0 0.0
2017-Nov-28 12:28N 01°16' E 103°50'0 0.0
2017-Nov-28 11:58N 01°16' E 103°50'0 0.0
2017-Nov-28 11:28N 01°16' E 103°50'0 0.0
2017-Nov-28 10:58N 01°16' E 103°50'0 0.0
2017-Nov-28 10:28N 01°16' E 103°50'0 0.0
2017-Nov-28 09:58N 01°16' E 103°50'0 0.0
2017-Nov-28 09:28N 01°16' E 103°50'0 0.0
2017-Nov-28 08:59N 01°16' E 103°50'1 2.0
2017-Nov-28 08:31N 01°16' E 103°51'4 7.1
2017-Nov-28 08:01N 01°14' E 103°54'2 3.5
2017-Nov-28 07:30N 01°14' E 103°55'4 7.4
2017-Nov-28 07:00N 01°15' E 103°59'4 7.5
2017-Nov-28 06:31N 01°16' E 104°02'  

Dump ship's entire track history